createdAt,value
2017-10-02T00:00:15.836Z,14.32
2017-10-02T00:01:16.178Z,14.35
2017-10-02T00:02:16.619Z,14.37
2017-10-02T00:03:16.612Z,14.32
2017-10-02T00:04:16.293Z,14.35
2017-10-02T00:05:16.312Z,14.36
2017-10-02T00:06:16.304Z,14.36
2017-10-02T00:07:16.285Z,14.23
2017-10-02T00:08:16.749Z,14.3
2017-10-02T00:09:16.783Z,14.28
2017-10-02T00:10:16.462Z,14.36
2017-10-02T00:11:16.908Z,14.3
2017-10-02T00:12:16.589Z,14.28
2017-10-02T00:13:16.924Z,14.28
2017-10-02T00:14:16.592Z,14.23
2017-10-02T00:15:16.911Z,14.26
2017-10-02T00:16:16.927Z,14.28
2017-10-02T00:17:16.915Z,14.26
2017-10-02T00:18:16.606Z,14.2
2017-10-02T00:19:16.917Z,14.3
2017-10-02T00:20:16.414Z,14.22
2017-10-02T00:21:17.044Z,14.22
2017-10-02T00:22:16.747Z,14.23
2017-10-02T00:23:16.754Z,14.12
2017-10-02T00:24:16.423Z,14.23
2017-10-02T00:25:17.062Z,14.17
2017-10-02T00:26:17.060Z,14.2
2017-10-02T00:27:17.067Z,14.18
2017-10-02T00:28:16.754Z,14.15
2017-10-02T00:29:17.114Z,14.17
2017-10-02T00:30:16.780Z,14.15
2017-10-02T00:31:16.812Z,14.18
2017-10-02T00:32:17.135Z,14.2
2017-10-02T00:33:16.885Z,14.17
2017-10-02T00:34:16.820Z,14.25
2017-10-02T00:35:16.697Z,14.12
2017-10-02T00:36:16.873Z,14.2
2017-10-02T00:37:16.529Z,14.14
2017-10-02T00:38:16.540Z,14.03
2017-10-02T00:39:17.198Z,14.18
2017-10-02T00:40:16.894Z,14.04
2017-10-02T00:41:17.229Z,14.11
2017-10-02T00:42:16.613Z,14.2
2017-10-02T00:43:16.945Z,14.03
2017-10-02T00:44:17.290Z,14.14
2017-10-02T00:45:16.987Z,14.08
2017-10-02T00:46:17.321Z,14.14
2017-10-02T00:47:17.022Z,14.2
2017-10-02T00:48:17.397Z,14.14
2017-10-02T00:49:16.744Z,14.1
2017-10-02T00:50:17.087Z,14.1
2017-10-02T00:51:16.778Z,14.05
2017-10-02T00:52:17.124Z,14.11
2017-10-02T00:53:17.459Z,14.1
2017-10-02T00:54:17.516Z,14.05
2017-10-02T00:55:17.175Z,14.08
2017-10-02T00:56:17.519Z,14.05
2017-10-02T00:57:17.539Z,14.08
2017-10-02T00:58:17.551Z,14
2017-10-02T00:59:17.569Z,14.07
2017-10-02T01:00:16.948Z,14
2017-10-02T01:01:16.965Z,14
2017-10-02T01:02:17.303Z,13.95
2017-10-02T01:03:17.643Z,14
2017-10-02T01:04:17.347Z,13.99
2017-10-02T01:05:17.684Z,13.9
2017-10-02T01:06:17.376Z,13.99
2017-10-02T01:07:17.393Z,13.89
2017-10-02T01:08:17.413Z,13.99
2017-10-02T01:09:17.431Z,13.9
2017-10-02T01:10:17.452Z,13.93
2017-10-02T01:11:17.145Z,13.95
2017-10-02T01:12:17.482Z,13.92
2017-10-02T01:13:17.179Z,13.93
2017-10-02T01:14:17.522Z,13.9
2017-10-02T01:15:17.864Z,13.87
2017-10-02T01:16:17.233Z,13.87
2017-10-02T01:17:17.922Z,13.86
2017-10-02T01:18:17.271Z,13.9
2017-10-02T01:19:17.612Z,13.89
2017-10-02T01:20:17.311Z,13.93
2017-10-02T01:21:18.059Z,13.79
2017-10-02T01:22:17.994Z,13.86
2017-10-02T01:23:17.688Z,13.92
2017-10-02T01:24:17.703Z,13.86
2017-10-02T01:25:17.725Z,13.79
2017-10-02T01:26:17.739Z,13.83
2017-10-02T01:27:17.759Z,13.87
2017-10-02T01:28:17.967Z,13.78
2017-10-02T01:29:17.874Z,13.78
2017-10-02T01:30:18.172Z,13.79
2017-10-02T01:31:17.503Z,13.77
2017-10-02T01:32:17.522Z,13.81
2017-10-02T01:33:18.193Z,13.79
2017-10-02T01:34:17.883Z,13.83
2017-10-02T01:35:17.905Z,13.78
2017-10-02T01:36:17.922Z,13.81
2017-10-02T01:37:18.258Z,13.79
2017-10-02T01:38:18.286Z,13.79
2017-10-02T01:39:17.977Z,13.81
2017-10-02T01:40:17.993Z,13.81
2017-10-02T01:41:18.014Z,13.81
2017-10-02T01:42:18.027Z,13.86
2017-10-02T01:43:18.048Z,13.78
2017-10-02T01:44:18.067Z,13.75
2017-10-02T01:45:17.762Z,13.77
2017-10-02T01:46:18.100Z,13.72
2017-10-02T01:47:18.443Z,13.81
2017-10-02T01:48:18.143Z,13.79
2017-10-02T01:49:17.839Z,13.78
2017-10-02T01:50:18.172Z,13.81
2017-10-02T01:51:17.867Z,13.71
2017-10-02T01:52:18.535Z,13.79
2017-10-02T01:53:18.658Z,13.74
2017-10-02T01:54:18.245Z,13.77
2017-10-02T01:55:18.262Z,13.72
2017-10-02T01:56:18.600Z,13.74
2017-10-02T01:57:18.298Z,13.72
2017-10-02T01:58:18.640Z,13.7
2017-10-02T01:59:18.653Z,13.74
2017-10-02T02:00:18.675Z,13.65
2017-10-02T02:01:18.372Z,13.7
2017-10-02T02:02:18.066Z,13.74
2017-10-02T02:03:18.842Z,13.68
2017-10-02T02:04:18.520Z,13.6
2017-10-02T02:05:18.978Z,13.59
2017-10-02T02:06:18.462Z,13.56
2017-10-02T02:07:18.800Z,13.56
2017-10-02T02:08:18.174Z,13.63
2017-10-02T02:09:18.514Z,13.65
2017-10-02T02:10:18.533Z,13.6
2017-10-02T02:11:18.548Z,13.6
2017-10-02T02:12:18.281Z,13.56
2017-10-02T02:13:18.590Z,13.57
2017-10-02T02:14:18.281Z,13.56
2017-10-02T02:15:18.948Z,13.56
2017-10-02T02:16:18.640Z,13.57
2017-10-02T02:17:18.735Z,13.59
2017-10-02T02:18:19.035Z,13.59
2017-10-02T02:19:18.692Z,13.57
2017-10-02T02:20:19.029Z,13.56
2017-10-02T02:21:18.411Z,13.53
2017-10-02T02:22:18.744Z,13.46
2017-10-02T02:23:18.878Z,13.53
2017-10-02T02:24:18.792Z,13.53
2017-10-02T02:25:19.119Z,13.5
2017-10-02T02:26:18.895Z,13.5
2017-10-02T02:27:18.512Z,13.47
2017-10-02T02:28:18.533Z,13.57
2017-10-02T02:29:18.873Z,13.39
2017-10-02T02:30:18.897Z,13.39
2017-10-02T02:31:18.903Z,13.47
2017-10-02T02:32:18.929Z,13.5
2017-10-02T02:33:19.281Z,13.38
2017-10-02T02:34:18.963Z,13.5
2017-10-02T02:35:18.979Z,13.42
2017-10-02T02:36:19.324Z,13.46
2017-10-02T02:37:18.691Z,13.44
2017-10-02T02:38:19.030Z,13.46
2017-10-02T02:39:19.056Z,13.49
2017-10-02T02:40:19.487Z,13.44
2017-10-02T02:41:18.767Z,13.38
2017-10-02T02:42:19.105Z,13.49
2017-10-02T02:43:19.123Z,13.42
2017-10-02T02:44:18.914Z,13.41
2017-10-02T02:45:19.273Z,13.35
2017-10-02T02:46:19.501Z,13.3
2017-10-02T02:47:19.241Z,13.38
2017-10-02T02:48:19.208Z,13.31
2017-10-02T02:49:19.231Z,13.37
2017-10-02T02:50:19.605Z,13.35
2017-10-02T02:51:19.259Z,13.33
2017-10-02T02:52:19.280Z,13.37
2017-10-02T02:53:19.622Z,13.33
2017-10-02T02:54:19.643Z,13.28
2017-10-02T02:55:19.690Z,13.35
2017-10-02T02:56:19.350Z,13.31
2017-10-02T02:57:19.372Z,13.33
2017-10-02T02:58:19.388Z,13.3
2017-10-02T02:59:19.766Z,13.31
2017-10-02T03:00:19.420Z,13.33
2017-10-02T03:01:19.772Z,13.31
2017-10-02T03:02:19.462Z,13.28
2017-10-02T03:03:19.914Z,13.28
2017-10-02T03:04:19.829Z,13.28
2017-10-02T03:05:19.928Z,13.33
2017-10-02T03:06:19.939Z,13.35
2017-10-02T03:07:19.225Z,13.2
2017-10-02T03:08:19.562Z,13.22
2017-10-02T03:09:19.672Z,13.25
2017-10-02T03:10:19.279Z,13.35
2017-10-02T03:11:19.671Z,13.22
2017-10-02T03:12:20.065Z,13.22
2017-10-02T03:13:19.654Z,13.22
2017-10-02T03:14:20.003Z,13.22
2017-10-02T03:15:20.026Z,13.23
2017-10-02T03:16:19.384Z,13.25
2017-10-02T03:17:19.729Z,13.18
2017-10-02T03:18:19.745Z,13.22
2017-10-02T03:19:19.761Z,13.22
2017-10-02T03:20:19.456Z,13.23
2017-10-02T03:21:20.115Z,13.19
2017-10-02T03:22:19.813Z,13.22
2017-10-02T03:23:20.156Z,13.18
2017-10-02T03:24:19.850Z,13.22
2017-10-02T03:25:19.867Z,13.2
2017-10-02T03:26:19.563Z,13.2
2017-10-02T03:27:20.222Z,13.2
2017-10-02T03:28:20.238Z,13.16
2017-10-02T03:29:20.261Z,13.16
2017-10-02T03:30:20.284Z,13.16
2017-10-02T03:31:19.651Z,13.16
2017-10-02T03:32:19.989Z,13.19
2017-10-02T03:33:20.004Z,13.23
2017-10-02T03:34:20.344Z,13.22
2017-10-02T03:35:20.046Z,13.19
2017-10-02T03:36:20.378Z,13.18
2017-10-02T03:37:20.078Z,13.13
2017-10-02T03:38:20.098Z,13.12
2017-10-02T03:39:19.788Z,13.13
2017-10-02T03:40:20.456Z,13.18
2017-10-02T03:41:19.823Z,13.19
2017-10-02T03:42:20.499Z,13.15
2017-10-02T03:43:19.883Z,13.19
2017-10-02T03:44:19.902Z,13.15
2017-10-02T03:45:20.234Z,13.18
2017-10-02T03:46:19.913Z,13.16
2017-10-02T03:47:20.257Z,13.16
2017-10-02T03:48:20.272Z,13.08
2017-10-02T03:49:20.289Z,13.19
2017-10-02T03:50:20.468Z,13.16
2017-10-02T03:51:20.477Z,13.16
2017-10-02T03:52:20.467Z,13.16
2017-10-02T03:53:20.475Z,13.16
2017-10-02T03:54:20.467Z,13.08
2017-10-02T03:55:20.792Z,13.04
2017-10-02T03:56:20.517Z,13.08
2017-10-02T03:57:20.534Z,13.08
2017-10-02T03:58:20.510Z,13.12
2017-10-02T03:59:20.860Z,13.03
2017-10-02T04:00:20.901Z,13.13
2017-10-02T04:01:20.856Z,13.11
2017-10-02T04:02:20.542Z,13.04
2017-10-02T04:03:20.543Z,13.12
2017-10-02T04:04:20.870Z,13.11
2017-10-02T04:05:20.566Z,13.03
2017-10-02T04:06:20.590Z,13.04
2017-10-02T04:07:21.044Z,13.05
2017-10-02T04:08:20.620Z,13.05
2017-10-02T04:09:21.072Z,13.05
2017-10-02T04:10:20.979Z,13.01
2017-10-02T04:11:20.676Z,13.03
2017-10-02T04:12:20.368Z,13.09
2017-10-02T04:13:21.032Z,13.01
2017-10-02T04:14:20.726Z,13.09
2017-10-02T04:15:20.743Z,13.05
2017-10-02T04:16:20.756Z,13.04
2017-10-02T04:17:21.103Z,13.09
2017-10-02T04:18:20.815Z,13.03
2017-10-02T04:19:20.816Z,13.05
2017-10-02T04:20:20.863Z,13.09
2017-10-02T04:21:20.984Z,13.08
2017-10-02T04:22:20.868Z,13.03
2017-10-02T04:23:20.914Z,13.05
2017-10-02T04:24:20.579Z,13.03
2017-10-02T04:25:21.249Z,13.08
2017-10-02T04:26:20.933Z,13.04
2017-10-02T04:27:20.951Z,13.09
2017-10-02T04:28:21.299Z,13.08
2017-10-02T04:29:20.666Z,13.05
2017-10-02T04:30:21.006Z,13.04
2017-10-02T04:31:20.699Z,13.05
2017-10-02T04:32:21.043Z,13
2017-10-02T04:33:20.738Z,13.04
2017-10-02T04:34:20.751Z,12.97
2017-10-02T04:35:20.771Z,13
2017-10-02T04:36:21.232Z,13
2017-10-02T04:37:20.995Z,13
2017-10-02T04:38:21.005Z,12.98
2017-10-02T04:39:21.488Z,12.98
2017-10-02T04:40:21.502Z,12.94
2017-10-02T04:41:21.520Z,13
2017-10-02T04:42:21.216Z,13.04
2017-10-02T04:43:21.230Z,12.97
2017-10-02T04:44:21.249Z,12.94
2017-10-02T04:45:21.269Z,12.98
2017-10-02T04:46:21.284Z,12.95
2017-10-02T04:47:20.983Z,13
2017-10-02T04:48:21.642Z,12.98
2017-10-02T04:49:21.013Z,13.03
2017-10-02T04:50:21.675Z,12.95
2017-10-02T04:51:21.046Z,12.98
2017-10-02T04:52:21.386Z,13.05
2017-10-02T04:53:21.406Z,13.09
2017-10-02T04:54:21.423Z,12.94
2017-10-02T04:55:21.442Z,13
2017-10-02T04:56:21.455Z,13
2017-10-02T04:57:21.809Z,13.01
2017-10-02T04:58:21.494Z,13.03
2017-10-02T04:59:21.188Z,12.97
2017-10-02T05:00:21.206Z,13.01
2017-10-02T05:01:21.547Z,13.03
2017-10-02T05:02:21.885Z,13
2017-10-02T05:03:21.586Z,13.03
2017-10-02T05:04:21.916Z,12.97
2017-10-02T05:05:21.938Z,12.93
2017-10-02T05:06:21.957Z,12.95
2017-10-02T05:07:21.976Z,12.97
2017-10-02T05:08:21.762Z,12.94
2017-10-02T05:09:21.364Z,13.01
2017-10-02T05:10:21.699Z,12.95
2017-10-02T05:11:21.724Z,12.98
2017-10-02T05:12:21.948Z,12.97
2017-10-02T05:13:21.903Z,12.95
2017-10-02T05:14:21.844Z,12.95
2017-10-02T05:15:21.468Z,13
2017-10-02T05:16:21.484Z,12.97
2017-10-02T05:17:21.823Z,12.94
2017-10-02T05:18:22.161Z,12.94
2017-10-02T05:19:21.861Z,12.98
2017-10-02T05:20:21.879Z,12.94
2017-10-02T05:21:21.888Z,12.97
2017-10-02T05:22:21.597Z,12.95
2017-10-02T05:23:21.941Z,13.03
2017-10-02T05:24:22.306Z,13.05
2017-10-02T05:25:22.088Z,13.05
2017-10-02T05:26:22.307Z,13.04
2017-10-02T05:27:22.324Z,13.05
2017-10-02T05:28:22.015Z,13.01
2017-10-02T05:29:22.149Z,13
2017-10-02T05:30:22.190Z,13.01
2017-10-02T05:31:21.913Z,13
2017-10-02T05:32:22.084Z,13.01
2017-10-02T05:33:22.228Z,12.91
2017-10-02T05:34:22.525Z,12.98
2017-10-02T05:35:22.149Z,13
2017-10-02T05:36:22.484Z,13.03
2017-10-02T05:37:22.499Z,13.04
2017-10-02T05:38:22.514Z,13.09
2017-10-02T05:39:22.207Z,13
2017-10-02T05:40:22.544Z,13.03
2017-10-02T05:41:22.750Z,13.05
2017-10-02T05:42:22.585Z,13.08
2017-10-02T05:43:22.275Z,13.08
2017-10-02T05:44:21.971Z,13.15
2017-10-02T05:45:22.308Z,13.01
2017-10-02T05:46:22.003Z,13.15
2017-10-02T05:47:22.341Z,13.15
2017-10-02T05:48:22.683Z,13.19
2017-10-02T05:49:22.700Z,13.16
2017-10-02T05:50:22.075Z,13.15
2017-10-02T05:51:22.499Z,13.23
2017-10-02T05:52:22.496Z,13.2
2017-10-02T05:53:22.505Z,13.22
2017-10-02T05:54:22.504Z,13.2
2017-10-02T05:55:22.503Z,13.35
2017-10-02T05:56:22.506Z,13.28
2017-10-02T05:57:22.635Z,13.3
2017-10-02T05:58:22.632Z,13.28
2017-10-02T05:59:22.640Z,13.3
2017-10-02T06:00:22.890Z,13.38
2017-10-02T06:01:22.666Z,13.33
2017-10-02T06:02:22.930Z,13.38
2017-10-02T06:03:22.954Z,13.37
2017-10-02T06:04:22.639Z,13.31
2017-10-02T06:05:22.980Z,13.35
2017-10-02T06:06:22.682Z,13.35
2017-10-02T06:07:22.705Z,13.31
2017-10-02T06:08:22.388Z,13.37
2017-10-02T06:09:22.403Z,13.41
2017-10-02T06:10:22.747Z,13.46
2017-10-02T06:11:22.761Z,13.37
2017-10-02T06:12:23.104Z,13.44
2017-10-02T06:13:22.797Z,13.42
2017-10-02T06:14:22.817Z,13.42
2017-10-02T06:15:22.836Z,13.49
2017-10-02T06:16:22.855Z,13.44
2017-10-02T06:17:23.195Z,13.49
2017-10-02T06:18:22.891Z,13.47
2017-10-02T06:19:22.908Z,13.53
2017-10-02T06:20:22.921Z,13.42
2017-10-02T06:21:23.272Z,13.49
2017-10-02T06:22:22.635Z,13.47
2017-10-02T06:23:22.973Z,13.49
2017-10-02T06:24:22.991Z,13.49
2017-10-02T06:25:23.024Z,13.52
2017-10-02T06:26:23.023Z,13.52
2017-10-02T06:27:23.041Z,13.49
2017-10-02T06:28:23.385Z,13.59
2017-10-02T06:29:23.129Z,13.53
2017-10-02T06:30:23.095Z,13.54
2017-10-02T06:31:23.441Z,13.6
2017-10-02T06:32:23.136Z,13.56
2017-10-02T06:33:23.480Z,13.59
2017-10-02T06:34:23.166Z,13.56
2017-10-02T06:35:22.860Z,13.57
2017-10-02T06:36:23.200Z,13.63
2017-10-02T06:37:23.037Z,13.6
2017-10-02T06:38:23.235Z,13.7
2017-10-02T06:39:23.580Z,13.67
2017-10-02T06:40:23.272Z,13.65
2017-10-02T06:41:23.614Z,13.65
2017-10-02T06:42:23.637Z,13.68
2017-10-02T06:43:23.003Z,13.77
2017-10-02T06:44:23.344Z,13.63
2017-10-02T06:45:23.361Z,13.78
2017-10-02T06:46:23.699Z,13.78
2017-10-02T06:47:23.396Z,13.78
2017-10-02T06:48:23.413Z,13.85
2017-10-02T06:49:23.434Z,13.77
2017-10-02T06:50:23.451Z,13.79
2017-10-02T06:51:23.465Z,13.89
2017-10-02T06:52:23.811Z,13.87
2017-10-02T06:53:23.501Z,13.9
2017-10-02T06:54:23.840Z,13.86
2017-10-02T06:55:23.216Z,13.89
2017-10-02T06:56:23.232Z,13.86
2017-10-02T06:57:23.573Z,13.92
2017-10-02T06:58:23.265Z,13.93
2017-10-02T06:59:23.605Z,13.92
2017-10-02T07:00:23.302Z,13.93
2017-10-02T07:01:23.965Z,13.93
2017-10-02T07:02:23.987Z,13.97
2017-10-02T07:03:23.700Z,13.89
2017-10-02T07:04:24.026Z,14.04
2017-10-02T07:05:23.713Z,13.92
2017-10-02T07:06:23.405Z,14.04
2017-10-02T07:07:23.428Z,14
2017-10-02T07:08:23.765Z,14.05
2017-10-02T07:09:23.782Z,14.05
2017-10-02T07:10:23.804Z,14.07
2017-10-02T07:11:23.818Z,14.15
2017-10-02T07:12:24.161Z,14.07
2017-10-02T07:13:23.532Z,14.18
2017-10-02T07:14:23.878Z,14.23
2017-10-02T07:15:23.567Z,14.12
2017-10-02T07:16:23.588Z,14.15
2017-10-02T07:17:24.357Z,14.29
2017-10-02T07:18:24.355Z,14.15
2017-10-02T07:19:24.393Z,14.23
2017-10-02T07:20:23.978Z,14.26
2017-10-02T07:21:23.996Z,14.28
2017-10-02T07:22:24.022Z,14.29
2017-10-02T07:23:24.036Z,14.29
2017-10-02T07:24:24.386Z,14.35
2017-10-02T07:25:24.074Z,14.32
2017-10-02T07:26:24.091Z,14.47
2017-10-02T07:27:24.107Z,14.43
2017-10-02T07:28:24.126Z,14.47
2017-10-02T07:29:24.140Z,14.47
2017-10-02T07:30:24.161Z,14.5
2017-10-02T07:31:24.180Z,14.55
2017-10-02T07:32:23.872Z,14.54
2017-10-02T07:33:24.556Z,14.51
2017-10-02T07:34:24.229Z,14.55
2017-10-02T07:35:24.665Z,14.63
2017-10-02T07:36:23.944Z,14.69
2017-10-02T07:37:24.373Z,14.7
2017-10-02T07:38:24.400Z,14.72
2017-10-02T07:39:24.000Z,14.73
2017-10-02T07:40:24.399Z,14.85
2017-10-02T07:41:24.395Z,14.73
2017-10-02T07:42:24.052Z,14.84
2017-10-02T07:43:24.717Z,14.91
2017-10-02T07:44:24.738Z,14.94
2017-10-02T07:45:24.752Z,14.99
2017-10-02T07:46:24.773Z,15
2017-10-02T07:47:24.794Z,14.99
2017-10-02T07:48:24.162Z,14.99
2017-10-02T07:49:24.182Z,15.11
2017-10-02T07:50:24.565Z,15.1
2017-10-02T07:51:24.564Z,15.11
2017-10-02T07:52:24.234Z,15.19
2017-10-02T07:53:24.895Z,15.17
2017-10-02T07:54:24.594Z,15.35
2017-10-02T07:55:24.934Z,15.28
2017-10-02T07:56:24.952Z,15.31
2017-10-02T07:57:24.647Z,15.36
2017-10-02T07:58:24.669Z,15.39
2017-10-02T07:59:24.685Z,15.47
2017-10-02T08:00:24.383Z,15.46
2017-10-02T08:01:25.058Z,15.51
2017-10-02T08:02:24.737Z,15.55
2017-10-02T08:03:24.761Z,15.59
2017-10-02T08:04:24.455Z,15.7
2017-10-02T08:05:25.126Z,15.59
2017-10-02T08:06:25.015Z,15.72
2017-10-02T08:07:24.700Z,15.76
2017-10-02T08:08:24.650Z,15.77
2017-10-02T08:09:25.031Z,15.8
2017-10-02T08:10:25.026Z,15.8
2017-10-02T08:11:25.026Z,15.88
2017-10-02T08:12:25.372Z,15.92
2017-10-02T08:13:25.264Z,15.88
2017-10-02T08:14:25.291Z,15.9
2017-10-02T08:15:25.064Z,15.98
2017-10-02T08:16:25.320Z,16.01
2017-10-02T08:17:25.019Z,16.04
2017-10-02T08:18:24.713Z,16.05
2017-10-02T08:19:25.056Z,16.15
2017-10-02T08:20:24.746Z,16.16
2017-10-02T08:21:25.523Z,16.21
2017-10-02T08:22:25.117Z,16.21
2017-10-02T08:23:24.902Z,16.24
2017-10-02T08:24:25.274Z,16.24
2017-10-02T08:25:25.234Z,16.33
2017-10-02T08:26:25.235Z,16.39
2017-10-02T08:27:25.234Z,16.42
2017-10-02T08:28:24.921Z,16.36
2017-10-02T08:29:24.921Z,16.39
2017-10-02T08:30:25.312Z,16.53
2017-10-02T08:31:25.280Z,16.47
2017-10-02T08:32:25.296Z,16.54
2017-10-02T08:33:25.316Z,16.64
2017-10-02T08:34:25.340Z,16.65
2017-10-02T08:35:25.477Z,16.64
2017-10-02T08:36:25.376Z,16.61
2017-10-02T08:37:25.393Z,16.65
2017-10-02T08:38:25.093Z,16.76
2017-10-02T08:39:25.109Z,16.75
2017-10-02T08:40:25.446Z,16.79
2017-10-02T08:41:25.470Z,16.86
2017-10-02T08:42:25.808Z,16.83
2017-10-02T08:43:25.839Z,16.78
2017-10-02T08:44:25.205Z,16.79
2017-10-02T08:45:25.870Z,16.89
2017-10-02T08:46:25.568Z,16.86
2017-10-02T08:47:25.588Z,16.86
2017-10-02T08:48:25.608Z,16.99
2017-10-02T08:49:25.945Z,16.94
2017-10-02T08:50:25.643Z,17.06
2017-10-02T08:51:25.659Z,17.09
2017-10-02T08:52:25.358Z,16.96
2017-10-02T08:53:25.709Z,17.06
2017-10-02T08:54:25.719Z,17.02
2017-10-02T08:55:25.411Z,16.99
2017-10-02T08:56:26.111Z,17.04
2017-10-02T08:57:26.099Z,17.15
2017-10-02T08:58:26.117Z,17.14
2017-10-02T08:59:25.814Z,17.09
2017-10-02T09:00:25.836Z,17.09
2017-10-02T09:01:25.853Z,17.11
2017-10-02T09:02:26.197Z,17.15
2017-10-02T09:03:26.316Z,17.22
2017-10-02T09:04:26.232Z,17.23
2017-10-02T09:05:26.339Z,17.23
2017-10-02T09:06:25.630Z,17.22
2017-10-02T09:07:26.416Z,17.39
2017-10-02T09:08:26.382Z,17.36
2017-10-02T09:09:26.020Z,17.31
2017-10-02T09:10:26.349Z,17.39
2017-10-02T09:11:26.048Z,17.31
2017-10-02T09:12:26.197Z,17.39
2017-10-02T09:13:26.155Z,17.45
2017-10-02T09:14:25.865Z,17.46
2017-10-02T09:15:26.549Z,17.51
2017-10-02T09:16:26.512Z,17.57
2017-10-02T09:17:26.207Z,17.63
2017-10-02T09:18:26.186Z,17.56
2017-10-02T09:19:26.206Z,17.54
2017-10-02T09:20:26.676Z,17.57
2017-10-02T09:21:25.934Z,17.63
2017-10-02T09:22:25.942Z,17.63
2017-10-02T09:23:25.961Z,17.72
2017-10-02T09:24:26.694Z,17.67
2017-10-02T09:25:26.326Z,17.74
2017-10-02T09:26:26.020Z,17.63
2017-10-02T09:27:26.044Z,17.7
2017-10-02T09:28:26.385Z,17.72
2017-10-02T09:29:26.723Z,17.68
2017-10-02T09:30:26.426Z,17.78
2017-10-02T09:31:26.769Z,17.71
2017-10-02T09:32:26.144Z,17.78
2017-10-02T09:33:26.813Z,17.79
2017-10-02T09:34:26.180Z,17.78
2017-10-02T09:35:26.523Z,17.76
2017-10-02T09:36:26.543Z,17.89
2017-10-02T09:37:26.884Z,17.87
2017-10-02T09:38:26.585Z,17.79
2017-10-02T09:39:26.284Z,17.87
2017-10-02T09:40:27.065Z,17.87
2017-10-02T09:41:27.073Z,17.87
2017-10-02T09:42:26.667Z,17.87
2017-10-02T09:43:27.025Z,17.92
2017-10-02T09:44:27.029Z,17.9
2017-10-02T09:45:26.818Z,17.97
2017-10-02T09:46:27.071Z,17.95
2017-10-02T09:47:26.768Z,18.05
2017-10-02T09:48:27.110Z,18
2017-10-02T09:49:26.804Z,18.05
2017-10-02T09:50:26.826Z,18.11
2017-10-02T09:51:26.846Z,18.01
2017-10-02T09:52:27.056Z,18.05
2017-10-02T09:53:27.057Z,18.05
2017-10-02T09:54:27.060Z,18.03
2017-10-02T09:55:27.246Z,18.07
2017-10-02T09:56:26.948Z,18.15
2017-10-02T09:57:26.737Z,18.2
2017-10-02T09:58:26.989Z,18.15
2017-10-02T09:59:27.005Z,18.11
2017-10-02T10:00:27.032Z,18.15
2017-10-02T10:01:27.374Z,18.19
2017-10-02T10:02:27.067Z,18.11
2017-10-02T10:03:27.124Z,18.11
2017-10-02T10:04:27.432Z,18.22
2017-10-02T10:05:26.805Z,18.25
2017-10-02T10:06:27.179Z,18.2
2017-10-02T10:07:27.171Z,18.34
2017-10-02T10:08:26.986Z,18.29
2017-10-02T10:09:27.212Z,18.26
2017-10-02T10:10:27.294Z,18.25
2017-10-02T10:11:27.380Z,18.4
2017-10-02T10:12:27.596Z,18.44
2017-10-02T10:13:27.614Z,18.38
2017-10-02T10:14:27.312Z,18.38
2017-10-02T10:15:27.335Z,18.41
2017-10-02T10:16:27.036Z,18.44
2017-10-02T10:17:27.478Z,18.58
2017-10-02T10:18:27.398Z,18.56
2017-10-02T10:19:27.534Z,18.56
2017-10-02T10:20:27.850Z,18.56
2017-10-02T10:21:27.878Z,18.58
2017-10-02T10:22:27.556Z,18.63
2017-10-02T10:23:27.876Z,18.63
2017-10-02T10:24:27.875Z,18.59
2017-10-02T10:25:27.886Z,18.7
2017-10-02T10:26:28.012Z,18.7
2017-10-02T10:27:27.722Z,18.74
2017-10-02T10:28:28.011Z,18.75
2017-10-02T10:29:27.856Z,18.7
2017-10-02T10:30:27.532Z,18.78
2017-10-02T10:31:27.544Z,18.77
2017-10-02T10:32:27.803Z,18.78
2017-10-02T10:33:27.867Z,18.89
2017-10-02T10:34:27.855Z,18.88
2017-10-02T10:35:27.424Z,18.81
2017-10-02T10:36:27.445Z,18.92
2017-10-02T10:37:27.789Z,18.84
2017-10-02T10:38:28.133Z,18.89
2017-10-02T10:39:28.156Z,18.88
2017-10-02T10:40:28.176Z,18.89
2017-10-02T10:41:27.551Z,18.92
2017-10-02T10:42:28.391Z,18.93
2017-10-02T10:43:28.304Z,18.89
2017-10-02T10:44:28.255Z,18.83
2017-10-02T10:45:28.287Z,18.9
2017-10-02T10:46:28.299Z,18.83
2017-10-02T10:47:28.000Z,18.9
2017-10-02T10:48:28.339Z,18.9
2017-10-02T10:49:28.045Z,18.92
2017-10-02T10:50:28.383Z,18.89
2017-10-02T10:51:27.757Z,18.89
2017-10-02T10:52:28.424Z,18.88
2017-10-02T10:53:28.185Z,18.93
2017-10-02T10:54:27.821Z,18.93
2017-10-02T10:55:27.843Z,18.92
2017-10-02T10:56:28.186Z,18.86
2017-10-02T10:57:28.206Z,18.86
2017-10-02T10:58:28.565Z,18.89
2017-10-02T10:59:27.927Z,18.89
2017-10-02T11:00:28.270Z,18.92
2017-10-02T11:01:27.968Z,18.8
2017-10-02T11:02:28.405Z,18.84
2017-10-02T11:03:28.656Z,18.83
2017-10-02T11:04:28.354Z,18.86
2017-10-02T11:05:28.055Z,18.81
2017-10-02T11:06:28.399Z,18.75
2017-10-02T11:07:28.417Z,18.77
2017-10-02T11:08:28.437Z,18.73
2017-10-02T11:09:28.785Z,18.75
2017-10-02T11:10:28.484Z,18.75
2017-10-02T11:11:28.182Z,18.66
2017-10-02T11:12:28.203Z,18.66
2017-10-02T11:13:28.746Z,18.6
2017-10-02T11:14:28.889Z,18.66
2017-10-02T11:15:28.264Z,18.63
2017-10-02T11:16:28.612Z,18.6
2017-10-02T11:17:28.677Z,18.49
2017-10-02T11:18:28.547Z,18.44
2017-10-02T11:19:28.672Z,18.5
2017-10-02T11:20:28.367Z,18.49
2017-10-02T11:21:28.725Z,18.45
2017-10-02T11:22:28.731Z,18.45
2017-10-02T11:23:28.753Z,18.41
2017-10-02T11:24:29.099Z,18.43
2017-10-02T11:25:28.797Z,18.37
2017-10-02T11:26:28.502Z,18.31
2017-10-02T11:27:28.836Z,18.31
2017-10-02T11:28:28.860Z,18.34
2017-10-02T11:29:28.883Z,18.29
2017-10-02T11:30:28.900Z,18.19
2017-10-02T11:31:28.917Z,18.22
2017-10-02T11:32:29.270Z,18.19
2017-10-02T11:33:29.288Z,18.11
2017-10-02T11:34:29.305Z,18.11
2017-10-02T11:35:28.687Z,18.01
2017-10-02T11:36:29.349Z,18.08
2017-10-02T11:37:29.047Z,18
2017-10-02T11:38:29.065Z,18.03
2017-10-02T11:39:29.413Z,18.03
2017-10-02T11:40:29.435Z,17.97
2017-10-02T11:41:29.131Z,17.94
2017-10-02T11:42:29.149Z,17.87
2017-10-02T11:43:29.219Z,17.85
2017-10-02T11:44:29.517Z,17.86
2017-10-02T11:45:29.539Z,17.85
2017-10-02T11:46:29.239Z,17.89
2017-10-02T11:47:29.580Z,17.82
2017-10-02T11:48:29.280Z,17.79
2017-10-02T11:49:29.299Z,17.74
2017-10-02T11:50:29.646Z,17.74
2017-10-02T11:51:29.016Z,17.72
2017-10-02T11:52:29.360Z,17.76
2017-10-02T11:53:29.709Z,17.7
2017-10-02T11:54:29.077Z,17.7
2017-10-02T11:55:29.746Z,17.65
2017-10-02T11:56:29.770Z,17.68
2017-10-02T11:57:29.141Z,17.63
2017-10-02T11:58:29.809Z,17.56
2017-10-02T11:59:29.509Z,17.56
2017-10-02T12:00:29.847Z,17.49
2017-10-02T12:01:29.226Z,17.54
2017-10-02T12:02:29.568Z,17.57
2017-10-02T12:03:29.590Z,17.54
2017-10-02T12:04:29.933Z,17.51
2017-10-02T12:05:29.958Z,17.54
2017-10-02T12:06:29.652Z,17.48
2017-10-02T12:07:29.995Z,17.46
2017-10-02T12:08:29.699Z,17.39
2017-10-02T12:09:29.393Z,17.36
2017-10-02T12:10:29.732Z,17.39
2017-10-02T12:11:29.755Z,17.36
2017-10-02T12:12:29.770Z,17.33
2017-10-02T12:13:29.791Z,17.31
2017-10-02T12:14:29.495Z,17.27
2017-10-02T12:15:29.834Z,17.36
2017-10-02T12:16:29.863Z,17.33
2017-10-02T12:17:29.878Z,17.23
2017-10-02T12:18:30.226Z,17.2
2017-10-02T12:19:30.250Z,17.24
2017-10-02T12:20:29.940Z,17.27
2017-10-02T12:21:29.955Z,17.24
2017-10-02T12:22:29.977Z,17.23
2017-10-02T12:23:30.005Z,17.26
2017-10-02T12:24:30.346Z,17.26
2017-10-02T12:25:30.366Z,17.16
2017-10-02T12:26:30.385Z,17.23
2017-10-02T12:27:30.401Z,17.2
2017-10-02T12:28:30.104Z,17.2
2017-10-02T12:29:30.126Z,17.22
2017-10-02T12:30:30.143Z,17.24
2017-10-02T12:31:30.490Z,17.14
2017-10-02T12:32:30.186Z,17.19
2017-10-02T12:33:30.205Z,17.19
2017-10-02T12:34:29.902Z,17.2
2017-10-02T12:35:30.248Z,17.15
2017-10-02T12:36:30.269Z,17.26
2017-10-02T12:37:30.289Z,17.12
2017-10-02T12:38:30.309Z,17.12
2017-10-02T12:39:30.330Z,17.19
2017-10-02T12:40:30.692Z,17.14
2017-10-02T12:41:30.370Z,17.15
2017-10-02T12:42:30.390Z,17.05
2017-10-02T12:43:30.412Z,17.12
2017-10-02T12:44:30.111Z,17.11
2017-10-02T12:45:30.776Z,17.08
2017-10-02T12:46:30.468Z,17.11
2017-10-02T12:47:30.166Z,17.11
2017-10-02T12:48:30.835Z,17.12
2017-10-02T12:49:30.532Z,17.04
2017-10-02T12:50:30.556Z,17.01
2017-10-02T12:51:30.897Z,17.04
2017-10-02T12:52:30.916Z,17.04
2017-10-02T12:53:30.610Z,17.01
2017-10-02T12:54:30.308Z,17.05
2017-10-02T12:55:30.657Z,17.06
2017-10-02T12:56:30.701Z,17.01